sensor_id;sensor_type;location;lat;lon;timestamp;pressure;altitude;pressure_sealevel;temperature;humidity
22649;BME280;11491;41.942;24.220;2022-10-26T00:00:33;90384.41;;;9.21;73.35
22649;BME280;11491;41.942;24.220;2022-10-26T00:03:00;90384.69;;;9.28;72.65
22649;BME280;11491;41.942;24.220;2022-10-26T00:05:27;90381.94;;;9.16;73.30
22649;BME280;11491;41.942;24.220;2022-10-26T00:07:53;90378.06;;;9.05;73.71
22649;BME280;11491;41.942;24.220;2022-10-26T00:10:20;90383.25;;;9.01;73.98
22649;BME280;11491;41.942;24.220;2022-10-26T00:12:48;90386.97;;;9.09;73.69
22649;BME280;11491;41.942;24.220;2022-10-26T00:15:17;90380.69;;;9.14;73.53
22649;BME280;11491;41.942;24.220;2022-10-26T00:17:45;90379.44;;;9.11;73.41
22649;BME280;11491;41.942;24.220;2022-10-26T00:20:12;90370.72;;;9.02;73.30
22649;BME280;11491;41.942;24.220;2022-10-26T00:22:39;90390.25;;;9.15;72.99
22649;BME280;11491;41.942;24.220;2022-10-26T00:25:06;90391.53;;;9.09;72.97
22649;BME280;11491;41.942;24.220;2022-10-26T00:27:33;90386.72;;;9.02;73.29
22649;BME280;11491;41.942;24.220;2022-10-26T00:30:00;90373.09;;;8.65;74.27
22649;BME280;11491;41.942;24.220;2022-10-26T00:32:28;90388.50;;;8.42;75.80
22649;BME280;11491;41.942;24.220;2022-10-26T00:34:55;90389.75;;;8.45;75.72
22649;BME280;11491;41.942;24.220;2022-10-26T00:37:21;90388.19;;;8.44;76.27
22649;BME280;11491;41.942;24.220;2022-10-26T00:39:48;90391.34;;;8.46;76.36
22649;BME280;11491;41.942;24.220;2022-10-26T00:42:18;90395.38;;;8.52;76.15
22649;BME280;11491;41.942;24.220;2022-10-26T00:45:06;90399.44;;;8.58;76.00
22649;BME280;11491;41.942;24.220;2022-10-26T00:47:45;90392.66;;;8.69;75.60
22649;BME280;11491;41.942;24.220;2022-10-26T00:50:16;90388.44;;;8.68;74.75
22649;BME280;11491;41.942;24.220;2022-10-26T00:52:44;90392.53;;;8.66;74.93
22649;BME280;11491;41.942;24.220;2022-10-26T00:55:11;90390.63;;;8.66;74.78
22649;BME280;11491;41.942;24.220;2022-10-26T00:57:38;90395.03;;;8.62;74.98
22649;BME280;11491;41.942;24.220;2022-10-26T01:00:07;90392.28;;;8.50;75.53
22649;BME280;11491;41.942;24.220;2022-10-26T01:02:34;90388.66;;;8.46;76.07
22649;BME280;11491;41.942;24.220;2022-10-26T01:05:04;90387.09;;;8.45;76.26
22649;BME280;11491;41.942;24.220;2022-10-26T01:07:32;90380.31;;;8.56;75.18
22649;BME280;11491;41.942;24.220;2022-10-26T01:10:00;90383.03;;;8.47;75.38
22649;BME280;11491;41.942;24.220;2022-10-26T01:12:29;90385.84;;;8.42;75.41
22649;BME280;11491;41.942;24.220;2022-10-26T01:14:55;90386.13;;;8.49;74.83
22649;BME280;11491;41.942;24.220;2022-10-26T01:17:31;90384.59;;;8.48;74.83
22649;BME280;11491;41.942;24.220;2022-10-26T01:20:35;90387.56;;;8.47;75.18
22649;BME280;11491;41.942;24.220;2022-10-26T01:23:07;90389.13;;;8.48;75.22
22649;BME280;11491;41.942;24.220;2022-10-26T01:25:55;90383.19;;;8.25;75.86
22649;BME280;11491;41.942;24.220;2022-10-26T01:28:34;90380.38;;;8.21;76.38
22649;BME280;11491;41.942;24.220;2022-10-26T01:31:10;90385.59;;;8.09;76.56
22649;BME280;11491;41.942;24.220;2022-10-26T01:33:43;90380.38;;;8.21;76.21
22649;BME280;11491;41.942;24.220;2022-10-26T01:36:15;90387.75;;;8.24;76.27
22649;BME280;11491;41.942;24.220;2022-10-26T01:38:53;90381.03;;;8.18;76.08
22649;BME280;11491;41.942;24.220;2022-10-26T01:41:25;90366.59;;;8.19;75.81
22649;BME280;11491;41.942;24.220;2022-10-26T01:43:55;90350.22;;;7.91;76.26
22649;BME280;11491;41.942;24.220;2022-10-26T01:46:26;90385.41;;;8.14;76.47
22649;BME280;11491;41.942;24.220;2022-10-26T01:48:58;90352.84;;;7.99;76.19
22649;BME280;11491;41.942;24.220;2022-10-26T01:51:27;90376.19;;;8.11;75.90
22649;BME280;11491;41.942;24.220;2022-10-26T01:53:57;90377.59;;;8.09;75.56
22649;BME280;11491;41.942;24.220;2022-10-26T01:56:26;90373.81;;;8.10;75.75
22649;BME280;11491;41.942;24.220;2022-10-26T02:05:22;90377.31;;;7.49;79.63
22649;BME280;11491;41.942;24.220;2022-10-26T02:07:55;90370.75;;;7.55;79.20
22649;BME280;11491;41.942;24.220;2022-10-26T02:10:39;90377.00;;;7.42;80.37
22649;BME280;11491;41.942;24.220;2022-10-26T02:13:15;90377.94;;;7.46;80.08
22649;BME280;11491;41.942;24.220;2022-10-26T02:15:48;90383.59;;;7.36;80.10
22649;BME280;11491;41.942;24.220;2022-10-26T02:18:24;90383.59;;;7.53;79.57
22649;BME280;11491;41.942;24.220;2022-10-26T02:20:59;90375.78;;;7.66;78.45
22649;BME280;11491;41.942;24.220;2022-10-26T02:23:32;90367.94;;;7.43;79.20
22649;BME280;11491;41.942;24.220;2022-10-26T02:26:02;90378.28;;;7.53;78.82
22649;BME280;11491;41.942;24.220;2022-10-26T02:28:33;90374.69;;;7.58;78.94
22649;BME280;11491;41.942;24.220;2022-10-26T02:31:03;90372.31;;;7.57;78.41
22649;BME280;11491;41.942;24.220;2022-10-26T02:33:36;90381.41;;;7.73;77.35
22649;BME280;11491;41.942;24.220;2022-10-26T02:36:07;90376.41;;;7.63;77.69
22649;BME280;11491;41.942;24.220;2022-10-26T02:38:38;90376.69;;;7.70;77.54
22649;BME280;11491;41.942;24.220;2022-10-26T02:41:07;90386.41;;;7.66;78.16
22649;BME280;11491;41.942;24.220;2022-10-26T02:43:40;90371.38;;;7.52;78.56
22649;BME280;11491;41.942;24.220;2022-10-26T02:46:12;90377.94;;;7.46;78.39
22649;BME280;11491;41.942;24.220;2022-10-26T02:48:40;90388.44;;;7.51;78.68
22649;BME280;11491;41.942;24.220;2022-10-26T02:51:11;90382.16;;;7.47;78.86
22649;BME280;11491;41.942;24.220;2022-10-26T02:53:44;90387.50;;;7.56;78.55
22649;BME280;11491;41.942;24.220;2022-10-26T02:56:16;90370.13;;;7.59;78.50
22649;BME280;11491;41.942;24.220;2022-10-26T02:58:48;90386.88;;;7.50;78.54
22649;BME280;11491;41.942;24.220;2022-10-26T03:01:17;90388.59;;;7.46;78.10
22649;BME280;11491;41.942;24.220;2022-10-26T03:03:44;90386.09;;;7.41;78.56
22649;BME280;11491;41.942;24.220;2022-10-26T03:06:19;90378.72;;;7.47;78.66
22649;BME280;11491;41.942;24.220;2022-10-26T03:08:46;90375.13;;;7.51;78.12
22649;BME280;11491;41.942;24.220;2022-10-26T03:11:13;90379.38;;;7.44;78.51
22649;BME280;11491;41.942;24.220;2022-10-26T03:13:39;90377.31;;;7.32;78.73
22649;BME280;11491;41.942;24.220;2022-10-26T03:16:06;90378.72;;;7.21;79.17
22649;BME280;11491;41.942;24.220;2022-10-26T03:18:33;90382.94;;;7.22;79.93
22649;BME280;11491;41.942;24.220;2022-10-26T03:21:00;90376.84;;;7.39;79.59
22649;BME280;11491;41.942;24.220;2022-10-26T03:23:28;90378.25;;;7.36;78.65
22649;BME280;11491;41.942;24.220;2022-10-26T03:25:55;90372.44;;;7.25;79.16
22649;BME280;11491;41.942;24.220;2022-10-26T03:28:22;90379.03;;;7.37;78.60
22649;BME280;11491;41.942;24.220;2022-10-26T03:30:49;90375.75;;;7.31;78.78
22649;BME280;11491;41.942;24.220;2022-10-26T03:33:16;90375.91;;;7.26;79.36
22649;BME280;11491;41.942;24.220;2022-10-26T03:35:43;90376.50;;;7.14;79.18
22649;BME280;11491;41.942;24.220;2022-10-26T03:38:10;90375.56;;;7.10;79.74
22649;BME280;11491;41.942;24.220;2022-10-26T03:40:38;90387.94;;;7.15;79.68
22649;BME280;11491;41.942;24.220;2022-10-26T03:43:06;90379.47;;;7.12;79.73
22649;BME280;11491;41.942;24.220;2022-10-26T03:45:32;90373.66;;;7.02;79.80
22649;BME280;11491;41.942;24.220;2022-10-26T03:47:59;90383.56;;;7.19;79.83
22649;BME280;11491;41.942;24.220;2022-10-26T03:50:26;90383.06;;;6.99;80.20
22649;BME280;11491;41.942;24.220;2022-10-26T03:52:53;90383.19;;;6.94;80.78
22649;BME280;11491;41.942;24.220;2022-10-26T03:55:19;90385.09;;;7.02;80.44
22649;BME280;11491;41.942;24.220;2022-10-26T03:57:47;90375.25;;;7.11;80.12
22649;BME280;11491;41.942;24.220;2022-10-26T04:00:16;90382.91;;;7.04;80.00
22649;BME280;11491;41.942;24.220;2022-10-26T04:02:43;90380.09;;;7.09;79.99
22649;BME280;11491;41.942;24.220;2022-10-26T04:05:12;90376.50;;;7.14;79.55
22649;BME280;11491;41.942;24.220;2022-10-26T04:07:41;90374.16;;;7.12;79.42
22649;BME280;11491;41.942;24.220;2022-10-26T04:10:08;90375.72;;;7.14;79.21
22649;BME280;11491;41.942;24.220;2022-10-26T04:12:35;90384.16;;;7.07;79.17
22649;BME280;11491;41.942;24.220;2022-10-26T04:15:05;90384.78;;;7.12;79.15
22649;BME280;11491;41.942;24.220;2022-10-26T04:17:32;90386.53;;;7.08;79.47
22649;BME280;11491;41.942;24.220;2022-10-26T04:19:59;90379.13;;;7.05;79.37
22649;BME280;11491;41.942;24.220;2022-10-26T04:22:25;90381.94;;;7.00;79.70
22649;BME280;11491;41.942;24.220;2022-10-26T04:24:52;90391.97;;;7.03;79.61
22649;BME280;11491;41.942;24.220;2022-10-26T04:27:19;90389.34;;;7.12;79.50
22649;BME280;11491;41.942;24.220;2022-10-26T04:29:45;90391.22;;;7.11;79.15
22649;BME280;11491;41.942;24.220;2022-10-26T04:32:13;90389.09;;;6.74;80.35
22649;BME280;11491;41.942;24.220;2022-10-26T04:34:40;90404.75;;;6.84;80.18
22649;BME280;11491;41.942;24.220;2022-10-26T04:37:07;90400.66;;;6.78;80.04
22649;BME280;11491;41.942;24.220;2022-10-26T04:39:34;90403.00;;;6.79;80.24
22649;BME280;11491;41.942;24.220;2022-10-26T04:42:00;90407.97;;;6.72;80.16
22649;BME280;11491;41.942;24.220;2022-10-26T04:44:27;90412.25;;;6.82;80.30
22649;BME280;11491;41.942;24.220;2022-10-26T04:46:54;90408.06;;;6.58;81.16
22649;BME280;11491;41.942;24.220;2022-10-26T04:49:22;90395.63;;;6.05;82.80
22649;BME280;11491;41.942;24.220;2022-10-26T04:51:49;90402.69;;;6.41;82.56
22649;BME280;11491;41.942;24.220;2022-10-26T04:54:15;90418.97;;;6.48;82.87
22649;BME280;11491;41.942;24.220;2022-10-26T04:56:42;90411.56;;;6.67;81.69
22649;BME280;11491;41.942;24.220;2022-10-26T04:59:09;90413.16;;;6.68;82.14
22649;BME280;11491;41.942;24.220;2022-10-26T05:01:35;90417.22;;;6.75;81.71
22649;BME280;11491;41.942;24.220;2022-10-26T05:04:02;90411.63;;;6.85;81.40
22649;BME280;11491;41.942;24.220;2022-10-26T05:06:30;90418.19;;;6.79;81.28
22649;BME280;11491;41.942;24.220;2022-10-26T05:08:57;90417.28;;;6.92;80.80
22649;BME280;11491;41.942;24.220;2022-10-26T05:11:24;90419.59;;;6.76;81.42
22649;BME280;11491;41.942;24.220;2022-10-26T05:13:51;90404.69;;;6.66;81.47
22649;BME280;11491;41.942;24.220;2022-10-26T05:16:17;90416.47;;;6.83;81.46
22649;BME280;11491;41.942;24.220;2022-10-26T05:18:46;90424.03;;;6.98;80.79
22649;BME280;11491;41.942;24.220;2022-10-26T05:21:14;90429.22;;;7.03;80.07
22649;BME280;11491;41.942;24.220;2022-10-26T05:23:48;90429.66;;;6.97;79.97
22649;BME280;11491;41.942;24.220;2022-10-26T05:26:16;90427.13;;;6.92;80.69
22649;BME280;11491;41.942;24.220;2022-10-26T05:28:42;90425.38;;;6.87;81.20
22649;BME280;11491;41.942;24.220;2022-10-26T05:31:09;90433.13;;;7.06;80.37
22649;BME280;11491;41.942;24.220;2022-10-26T05:33:36;90431.00;;;6.77;80.97
22649;BME280;11491;41.942;24.220;2022-10-26T05:36:03;90435.69;;;6.80;81.60
22649;BME280;11491;41.942;24.220;2022-10-26T05:38:30;90445.69;;;6.83;81.75
22649;BME280;11491;41.942;24.220;2022-10-26T05:40:58;90446.38;;;6.97;81.99
22649;BME280;11491;41.942;24.220;2022-10-26T05:43:25;90445.59;;;6.97;81.73
22649;BME280;11491;41.942;24.220;2022-10-26T05:45:52;90445.50;;;7.10;81.97
22649;BME280;11491;41.942;24.220;2022-10-26T05:48:20;90449.56;;;7.17;82.59
22649;BME280;11491;41.942;24.220;2022-10-26T05:50:46;90448.97;;;7.37;81.68
22649;BME280;11491;41.942;24.220;2022-10-26T05:53:13;90452.78;;;7.53;80.73
22649;BME280;11491;41.942;24.220;2022-10-26T05:55:41;90455.09;;;7.55;80.73
22649;BME280;11491;41.942;24.220;2022-10-26T05:58:11;90464.03;;;7.50;80.99
22649;BME280;11491;41.942;24.220;2022-10-26T06:00:47;90465.94;;;7.59;81.00
22649;BME280;11491;41.942;24.220;2022-10-26T06:03:24;90466.88;;;7.63;81.20
22649;BME280;11491;41.942;24.220;2022-10-26T06:05:57;90471.28;;;7.76;81.17
22649;BME280;11491;41.942;24.220;2022-10-26T06:08:25;90466.59;;;7.90;81.02
22649;BME280;11491;41.942;24.220;2022-10-26T06:10:53;90454.84;;;7.83;81.28
22649;BME280;11491;41.942;24.220;2022-10-26T06:13:22;90465.63;;;7.77;82.25
22649;BME280;11491;41.942;24.220;2022-10-26T06:16:01;90474.41;;;7.95;82.27
22649;BME280;11491;41.942;24.220;2022-10-26T06:18:37;90472.84;;;8.12;81.94
22649;BME280;11491;41.942;24.220;2022-10-26T06:21:21;90467.19;;;8.22;81.87
22649;BME280;11491;41.942;24.220;2022-10-26T06:23:51;90470.94;;;8.38;81.92
22649;BME280;11491;41.942;24.220;2022-10-26T06:26:30;90458.56;;;8.60;80.80
22649;BME280;11491;41.942;24.220;2022-10-26T06:29:11;90471.31;;;8.93;80.21
22649;BME280;11491;41.942;24.220;2022-10-26T06:31:42;90476.97;;;9.30;79.05
22649;BME280;11491;41.942;24.220;2022-10-26T06:34:10;90473.19;;;9.60;77.92
22649;BME280;11491;41.942;24.220;2022-10-26T06:36:39;90460.94;;;9.89;76.62
22649;BME280;11491;41.942;24.220;2022-10-26T06:39:09;90479.38;;;10.24;75.88
22649;BME280;11491;41.942;24.220;2022-10-26T06:41:38;90473.31;;;10.56;75.73
22649;BME280;11491;41.942;24.220;2022-10-26T06:44:09;90479.84;;;10.92;74.08
22649;BME280;11491;41.942;24.220;2022-10-26T06:46:40;90476.78;;;11.27;73.15
22649;BME280;11491;41.942;24.220;2022-10-26T06:49:15;90470.56;;;11.60;72.71
22649;BME280;11491;41.942;24.220;2022-10-26T06:51:50;90480.94;;;11.98;71.73
22649;BME280;11491;41.942;24.220;2022-10-26T06:54:21;90477.22;;;12.27;71.17
22649;BME280;11491;41.942;24.220;2022-10-26T06:56:51;90477.75;;;12.61;70.34
22649;BME280;11491;41.942;24.220;2022-10-26T06:59:30;90474.28;;;12.89;69.29
22649;BME280;11491;41.942;24.220;2022-10-26T07:01:57;90484.75;;;13.22;67.81
22649;BME280;11491;41.942;24.220;2022-10-26T07:04:24;90482.00;;;13.50;66.66
22649;BME280;11491;41.942;24.220;2022-10-26T07:06:51;90477.72;;;13.81;65.69
22649;BME280;11491;41.942;24.220;2022-10-26T07:09:18;90474.94;;;14.09;64.06
22649;BME280;11491;41.942;24.220;2022-10-26T07:11:44;90473.06;;;14.29;60.92
22649;BME280;11491;41.942;24.220;2022-10-26T07:14:11;90462.16;;;14.41;60.40
22649;BME280;11491;41.942;24.220;2022-10-26T07:16:39;90474.66;;;14.69;60.41
22649;BME280;11491;41.942;24.220;2022-10-26T07:19:06;90470.97;;;14.77;58.17
22649;BME280;11491;41.942;24.220;2022-10-26T07:21:33;90466.78;;;14.99;59.67
22649;BME280;11491;41.942;24.220;2022-10-26T07:23:59;90466.97;;;15.10;56.74
22649;BME280;11491;41.942;24.220;2022-10-26T07:26:26;90459.31;;;15.12;57.56
22649;BME280;11491;41.942;24.220;2022-10-26T07:28:53;90451.22;;;15.32;59.39
22649;BME280;11491;41.942;24.220;2022-10-26T07:31:20;90469.59;;;15.72;58.98
22649;BME280;11491;41.942;24.220;2022-10-26T07:33:48;90454.69;;;16.05;57.30
22649;BME280;11491;41.942;24.220;2022-10-26T07:36:15;90456.84;;;16.19;59.08
22649;BME280;11491;41.942;24.220;2022-10-26T07:38:41;90459.34;;;16.34;58.31
22649;BME280;11491;41.942;24.220;2022-10-26T07:41:08;90460.75;;;16.51;57.20
22649;BME280;11491;41.942;24.220;2022-10-26T07:43:35;90458.84;;;16.82;57.33
22649;BME280;11491;41.942;24.220;2022-10-26T07:46:01;90458.34;;;17.07;56.44
22649;BME280;11491;41.942;24.220;2022-10-26T07:48:28;90461.69;;;17.30;54.55
22649;BME280;11491;41.942;24.220;2022-10-26T07:50:56;90448.47;;;17.62;54.74
22649;BME280;11491;41.942;24.220;2022-10-26T07:53:26;90456.19;;;18.05;54.04
22649;BME280;11491;41.942;24.220;2022-10-26T07:55:53;90451.72;;;18.30;51.54
22649;BME280;11491;41.942;24.220;2022-10-26T07:58:20;90420.91;;;18.53;49.97
22649;BME280;11491;41.942;24.220;2022-10-26T08:00:48;90456.03;;;19.23;48.32
22649;BME280;11491;41.942;24.220;2022-10-26T08:03:15;90451.13;;;19.61;47.71
22649;BME280;11491;41.942;24.220;2022-10-26T08:05:44;90447.69;;;20.03;48.24
22649;BME280;11491;41.942;24.220;2022-10-26T08:08:12;90449.19;;;20.51;45.98
22649;BME280;11491;41.942;24.220;2022-10-26T08:10:41;90453.78;;;20.90;45.09
22649;BME280;11491;41.942;24.220;2022-10-26T08:13:08;90443.53;;;21.29;43.50
22649;BME280;11491;41.942;24.220;2022-10-26T08:15:35;90440.25;;;21.63;42.31
22649;BME280;11491;41.942;24.220;2022-10-26T08:18:05;90436.16;;;21.93;41.67
22649;BME280;11491;41.942;24.220;2022-10-26T08:20:32;90439.00;;;22.31;41.69
22649;BME280;11491;41.942;24.220;2022-10-26T08:22:59;90436.41;;;22.62;40.48
22649;BME280;11491;41.942;24.220;2022-10-26T08:25:27;90440.13;;;22.78;40.49
22649;BME280;11491;41.942;24.220;2022-10-26T08:27:54;90433.66;;;23.03;40.14
22649;BME280;11491;41.942;24.220;2022-10-26T08:30:21;90438.75;;;23.32;38.84
22649;BME280;11491;41.942;24.220;2022-10-26T08:32:48;90422.72;;;23.68;38.22
22649;BME280;11491;41.942;24.220;2022-10-26T08:35:15;90443.72;;;24.25;37.52
22649;BME280;11491;41.942;24.220;2022-10-26T08:37:41;90447.44;;;24.62;36.65
22649;BME280;11491;41.942;24.220;2022-10-26T08:40:13;90442.06;;;24.79;36.69
22649;BME280;11491;41.942;24.220;2022-10-26T08:42:47;90439.03;;;25.17;36.05
22649;BME280;11491;41.942;24.220;2022-10-26T08:45:23;90438.72;;;25.34;34.87
22649;BME280;11491;41.942;24.220;2022-10-26T08:47:53;90401.03;;;25.42;35.06
22649;BME280;11491;41.942;24.220;2022-10-26T08:50:26;90423.22;;;25.84;34.14
22649;BME280;11491;41.942;24.220;2022-10-26T08:52:59;90434.41;;;26.26;33.33
22649;BME280;11491;41.942;24.220;2022-10-26T08:55:33;90433.97;;;25.75;34.03
22649;BME280;11491;41.942;24.220;2022-10-26T08:58:10;90422.03;;;25.85;34.19
22649;BME280;11491;41.942;24.220;2022-10-26T09:00:40;90428.06;;;26.29;33.37
22649;BME280;11491;41.942;24.220;2022-10-26T09:03:12;90428.78;;;26.66;32.41
22649;BME280;11491;41.942;24.220;2022-10-26T09:05:46;90428.25;;;27.00;32.67
22649;BME280;11491;41.942;24.220;2022-10-26T09:08:27;90431.16;;;27.26;32.04
22649;BME280;11491;41.942;24.220;2022-10-26T09:11:00;90431.41;;;27.15;30.91
22649;BME280;11491;41.942;24.220;2022-10-26T09:13:37;90432.47;;;27.05;31.77
22649;BME280;11491;41.942;24.220;2022-10-26T09:16:07;90431.22;;;26.93;32.67
22649;BME280;11491;41.942;24.220;2022-10-26T09:18:46;90431.00;;;27.00;32.41
22649;BME280;11491;41.942;24.220;2022-10-26T09:21:24;90428.91;;;26.42;33.19
22649;BME280;11491;41.942;24.220;2022-10-26T09:24:01;90422.38;;;26.04;33.38
22649;BME280;11491;41.942;24.220;2022-10-26T09:26:34;90432.56;;;25.67;34.23
22649;BME280;11491;41.942;24.220;2022-10-26T09:29:10;90421.69;;;25.63;34.46
22649;BME280;11491;41.942;24.220;2022-10-26T09:31:39;90430.00;;;25.40;34.04
22649;BME280;11491;41.942;24.220;2022-10-26T09:34:07;90424.41;;;25.27;35.43
22649;BME280;11491;41.942;24.220;2022-10-26T09:36:40;90426.44;;;25.23;35.04
22649;BME280;11491;41.942;24.220;2022-10-26T09:39:14;90431.28;;;25.35;35.13
22649;BME280;11491;41.942;24.220;2022-10-26T09:41:49;90431.06;;;25.26;34.48
22649;BME280;11491;41.942;24.220;2022-10-26T09:44:24;90423.88;;;25.72;34.70
22649;BME280;11491;41.942;24.220;2022-10-26T09:46:56;90413.69;;;25.72;34.30
22649;BME280;11491;41.942;24.220;2022-10-26T09:49:29;90428.09;;;25.17;34.99
22649;BME280;11491;41.942;24.220;2022-10-26T09:52:00;90422.09;;;25.25;34.00
22649;BME280;11491;41.942;24.220;2022-10-26T09:54:26;90425.88;;;25.88;33.98
22649;BME280;11491;41.942;24.220;2022-10-26T09:56:55;90410.75;;;26.16;33.30
22649;BME280;11491;41.942;24.220;2022-10-26T09:59:28;90419.69;;;26.53;32.89
22649;BME280;11491;41.942;24.220;2022-10-26T10:01:57;90413.84;;;26.51;33.19
22649;BME280;11491;41.942;24.220;2022-10-26T10:04:24;90419.16;;;26.74;33.99
22649;BME280;11491;41.942;24.220;2022-10-26T10:06:52;90412.81;;;26.77;32.71
22649;BME280;11491;41.942;24.220;2022-10-26T10:09:36;90411.09;;;26.51;31.64
22649;BME280;11491;41.942;24.220;2022-10-26T10:12:03;90400.94;;;25.82;34.19
22649;BME280;11491;41.942;24.220;2022-10-26T10:14:36;90405.06;;;25.74;35.03
22649;BME280;11491;41.942;24.220;2022-10-26T10:17:05;90386.59;;;25.58;34.60
22649;BME280;11491;41.942;24.220;2022-10-26T10:19:35;90408.97;;;25.73;34.07
22649;BME280;11491;41.942;24.220;2022-10-26T10:22:08;90398.19;;;26.02;33.84
22649;BME280;11491;41.942;24.220;2022-10-26T10:24:40;90392.59;;;26.06;33.73
22649;BME280;11491;41.942;24.220;2022-10-26T10:27:15;90401.88;;;26.12;33.38
22649;BME280;11491;41.942;24.220;2022-10-26T10:29:45;90383.22;;;25.70;34.10
22649;BME280;11491;41.942;24.220;2022-10-26T10:32:15;90387.38;;;25.58;33.69
22649;BME280;11491;41.942;24.220;2022-10-26T10:34:43;90384.31;;;25.56;34.94
22649;BME280;11491;41.942;24.220;2022-10-26T10:37:22;90378.06;;;25.92;34.21
22649;BME280;11491;41.942;24.220;2022-10-26T10:39:49;90378.59;;;25.67;34.93
22649;BME280;11491;41.942;24.220;2022-10-26T10:42:20;90389.63;;;24.84;35.30
22649;BME280;11491;41.942;24.220;2022-10-26T10:44:51;90383.63;;;24.73;35.90
22649;BME280;11491;41.942;24.220;2022-10-26T10:47:23;90392.19;;;24.27;36.78
22649;BME280;11491;41.942;24.220;2022-10-26T10:49:56;90379.22;;;24.08;36.49
22649;BME280;11491;41.942;24.220;2022-10-26T10:52:26;90388.00;;;24.19;36.14
22649;BME280;11491;41.942;24.220;2022-10-26T10:55:02;90388.38;;;23.98;36.84
22649;BME280;11491;41.942;24.220;2022-10-26T10:57:38;90372.81;;;24.18;37.27
22649;BME280;11491;41.942;24.220;2022-10-26T11:00:11;90384.16;;;24.84;36.09
22649;BME280;11491;41.942;24.220;2022-10-26T11:03:00;90366.97;;;25.43;34.44
22649;BME280;11491;41.942;24.220;2022-10-26T11:05:40;90384.19;;;25.24;35.12
22649;BME280;11491;41.942;24.220;2022-10-26T11:08:12;90374.09;;;24.81;35.02
22649;BME280;11491;41.942;24.220;2022-10-26T11:10:46;90385.13;;;25.17;36.47
22649;BME280;11491;41.942;24.220;2022-10-26T11:13:19;90382.78;;;25.15;35.27
22649;BME280;11491;41.942;24.220;2022-10-26T11:15:53;90378.84;;;25.56;34.86
22649;BME280;11491;41.942;24.220;2022-10-26T11:18:26;90379.97;;;25.75;34.72
22649;BME280;11491;41.942;24.220;2022-10-26T11:21:01;90375.25;;;25.76;33.98
22649;BME280;11491;41.942;24.220;2022-10-26T11:23:35;90377.69;;;25.74;34.32
22649;BME280;11491;41.942;24.220;2022-10-26T11:26:08;90372.56;;;25.92;33.68
22649;BME280;11491;41.942;24.220;2022-10-26T11:28:42;90371.72;;;25.95;33.84
22649;BME280;11491;41.942;24.220;2022-10-26T11:31:17;90371.72;;;25.95;34.13
22649;BME280;11491;41.942;24.220;2022-10-26T11:33:51;90377.22;;;26.12;34.61
22649;BME280;11491;41.942;24.220;2022-10-26T11:36:21;90383.72;;;26.18;32.78
22649;BME280;11491;41.942;24.220;2022-10-26T11:38:53;90371.06;;;25.91;33.93
22649;BME280;11491;41.942;24.220;2022-10-26T11:41:25;90379.97;;;25.75;33.85
22649;BME280;11491;41.942;24.220;2022-10-26T11:44:01;90380.00;;;25.55;33.96
22649;BME280;11491;41.942;24.220;2022-10-26T11:46:35;90380.00;;;25.39;34.38
22649;BME280;11491;41.942;24.220;2022-10-26T11:49:12;90384.31;;;25.56;35.00
22649;BME280;11491;41.942;24.220;2022-10-26T11:51:45;90385.28;;;25.83;33.98
22649;BME280;11491;41.942;24.220;2022-10-26T11:54:18;90380.81;;;25.36;34.63
22649;BME280;11491;41.942;24.220;2022-10-26T11:56:48;90382.91;;;25.48;34.04
22649;BME280;11491;41.942;24.220;2022-10-26T11:59:18;90388.75;;;25.87;34.75
22649;BME280;11491;41.942;24.220;2022-10-26T12:01:49;90394.44;;;25.40;35.04
22649;BME280;11491;41.942;24.220;2022-10-26T12:04:17;90381.38;;;25.07;35.14
22649;BME280;11491;41.942;24.220;2022-10-26T12:06:45;90390.63;;;24.74;35.32
22649;BME280;11491;41.942;24.220;2022-10-26T12:09:18;90379.81;;;24.66;35.29
22649;BME280;11491;41.942;24.220;2022-10-26T12:11:49;90375.28;;;24.80;35.50
22649;BME280;11491;41.942;24.220;2022-10-26T12:14:20;90386.84;;;24.67;35.35
22649;BME280;11491;41.942;24.220;2022-10-26T12:16:57;90380.94;;;24.69;35.65
22649;BME280;11491;41.942;24.220;2022-10-26T12:19:28;90384.03;;;24.91;35.17
22649;BME280;11491;41.942;24.220;2022-10-26T12:21:59;90384.22;;;24.37;36.15
22649;BME280;11491;41.942;24.220;2022-10-26T12:24:30;90387.28;;;24.39;35.98
22649;BME280;11491;41.942;24.220;2022-10-26T12:27:00;90387.25;;;24.66;35.64
22649;BME280;11491;41.942;24.220;2022-10-26T12:29:36;90395.41;;;24.46;36.42
22649;BME280;11491;41.942;24.220;2022-10-26T12:35:44;90381.38;;;24.67;35.69
22649;BME280;11491;41.942;24.220;2022-10-26T12:38:55;90383.19;;;24.94;35.50
22649;BME280;11491;41.942;24.220;2022-10-26T12:41:25;90355.72;;;25.01;35.11
22649;BME280;11491;41.942;24.220;2022-10-26T12:43:57;90385.91;;;25.18;33.70
22649;BME280;11491;41.942;24.220;2022-10-26T12:46:39;90393.50;;;24.86;35.02
22649;BME280;11491;41.942;24.220;2022-10-26T12:52:47;90387.72;;;24.61;35.23
22649;BME280;11491;41.942;24.220;2022-10-26T12:55:33;90390.91;;;24.99;35.24
22649;BME280;11491;41.942;24.220;2022-10-26T13:01:52;90395.19;;;25.00;34.40
22649;BME280;11491;41.942;24.220;2022-10-26T13:07:25;90405.56;;;25.09;34.93
22649;BME280;11491;41.942;24.220;2022-10-26T13:10:00;90401.66;;;25.30;34.78
22649;BME280;11491;41.942;24.220;2022-10-26T13:12:36;90392.91;;;25.19;34.59
22649;BME280;11491;41.942;24.220;2022-10-26T13:15:16;90390.00;;;24.86;35.03
22649;BME280;11491;41.942;24.220;2022-10-26T13:17:52;90397.38;;;25.29;33.84
22649;BME280;11491;41.942;24.220;2022-10-26T13:20:20;90399.19;;;25.55;33.49
22649;BME280;11491;41.942;24.220;2022-10-26T13:22:47;90393.78;;;25.52;33.65
22649;BME280;11491;41.942;24.220;2022-10-26T13:25:22;90398.72;;;25.77;33.94
22649;BME280;11491;41.942;24.220;2022-10-26T13:27:59;90404.09;;;26.17;33.72
22649;BME280;11491;41.942;24.220;2022-10-26T13:30:45;90399.13;;;26.28;32.77
22649;BME280;11491;41.942;24.220;2022-10-26T13:33:19;90393.00;;;25.51;33.58